sensor_id;sensor_type;location;lat;lon;timestamp;temperature;humidity
11385;DHT22;5747;56.748;13.882;2024-03-29T00:01:58;2.90;99.90
11385;DHT22;5747;56.748;13.882;2024-03-29T00:04:24;3.00;99.90
11385;DHT22;5747;56.748;13.882;2024-03-29T00:06:50;3.10;99.90
11385;DHT22;5747;56.748;13.882;2024-03-29T00:09:17;3.20;99.90
11385;DHT22;5747;56.748;13.882;2024-03-29T00:11:43;3.50;99.90
11385;DHT22;5747;56.748;13.882;2024-03-29T00:14:10;3.60;99.90
11385;DHT22;5747;56.748;13.882;2024-03-29T00:16:36;3.70;99.90
11385;DHT22;5747;56.748;13.882;2024-03-29T00:19:04;3.80;99.90
11385;DHT22;5747;56.748;13.882;2024-03-29T00:21:30;3.90;99.90
11385;DHT22;5747;56.748;13.882;2024-03-29T00:23:56;4.00;99.90
11385;DHT22;5747;56.748;13.882;2024-03-29T00:26:22;4.10;99.90
11385;DHT22;5747;56.748;13.882;2024-03-29T00:28:48;4.20;99.90
11385;DHT22;5747;56.748;13.882;2024-03-29T00:31:15;4.30;99.90
11385;DHT22;5747;56.748;13.882;2024-03-29T00:33:41;4.40;99.90
11385;DHT22;5747;56.748;13.882;2024-03-29T00:36:09;4.40;99.90
11385;DHT22;5747;56.748;13.882;2024-03-29T00:38:35;4.40;99.90
11385;DHT22;5747;56.748;13.882;2024-03-29T00:41:02;4.40;99.90
11385;DHT22;5747;56.748;13.882;2024-03-29T00:43:29;4.40;99.90
11385;DHT22;5747;56.748;13.882;2024-03-29T00:45:55;4.50;99.90
11385;DHT22;5747;56.748;13.882;2024-03-29T00:48:21;4.40;99.90
11385;DHT22;5747;56.748;13.882;2024-03-29T00:50:48;4.40;99.90
11385;DHT22;5747;56.748;13.882;2024-03-29T00:53:15;4.50;99.90
11385;DHT22;5747;56.748;13.882;2024-03-29T00:55:41;4.60;99.90
11385;DHT22;5747;56.748;13.882;2024-03-29T00:58:08;4.60;99.90
11385;DHT22;5747;56.748;13.882;2024-03-29T01:00:34;4.60;99.90
11385;DHT22;5747;56.748;13.882;2024-03-29T01:03:00;4.70;99.90
11385;DHT22;5747;56.748;13.882;2024-03-29T01:05:26;4.80;99.90
11385;DHT22;5747;56.748;13.882;2024-03-29T01:07:52;4.80;99.90
11385;DHT22;5747;56.748;13.882;2024-03-29T01:10:20;4.80;99.90
11385;DHT22;5747;56.748;13.882;2024-03-29T01:12:46;4.80;99.90
11385;DHT22;5747;56.748;13.882;2024-03-29T01:15:13;4.90;99.90
11385;DHT22;5747;56.748;13.882;2024-03-29T01:17:39;5.00;99.90
11385;DHT22;5747;56.748;13.882;2024-03-29T01:20:06;5.00;99.90
11385;DHT22;5747;56.748;13.882;2024-03-29T01:22:32;5.00;99.90
11385;DHT22;5747;56.748;13.882;2024-03-29T01:24:58;5.00;99.90
11385;DHT22;5747;56.748;13.882;2024-03-29T01:27:26;5.00;99.90
11385;DHT22;5747;56.748;13.882;2024-03-29T01:29:52;5.00;99.90
11385;DHT22;5747;56.748;13.882;2024-03-29T01:32:18;5.10;99.90
11385;DHT22;5747;56.748;13.882;2024-03-29T01:34:44;5.10;99.90
11385;DHT22;5747;56.748;13.882;2024-03-29T01:37:10;5.10;99.90
11385;DHT22;5747;56.748;13.882;2024-03-29T01:39:37;5.10;99.90
11385;DHT22;5747;56.748;13.882;2024-03-29T01:42:03;5.10;99.90
11385;DHT22;5747;56.748;13.882;2024-03-29T01:44:31;5.10;99.90
11385;DHT22;5747;56.748;13.882;2024-03-29T01:46:58;5.10;99.90
11385;DHT22;5747;56.748;13.882;2024-03-29T01:49:25;5.10;99.90
11385;DHT22;5747;56.748;13.882;2024-03-29T01:51:52;5.20;99.90
11385;DHT22;5747;56.748;13.882;2024-03-29T01:54:20;5.20;99.90
11385;DHT22;5747;56.748;13.882;2024-03-29T01:56:48;5.20;99.90
11385;DHT22;5747;56.748;13.882;2024-03-29T01:59:17;5.20;99.90
11385;DHT22;5747;56.748;13.882;2024-03-29T02:01:45;5.20;99.90
11385;DHT22;5747;56.748;13.882;2024-03-29T02:04:13;5.30;99.90
11385;DHT22;5747;56.748;13.882;2024-03-29T02:06:40;5.40;99.90
11385;DHT22;5747;56.748;13.882;2024-03-29T02:09:07;5.40;99.90
11385;DHT22;5747;56.748;13.882;2024-03-29T02:11:34;5.50;99.90
11385;DHT22;5747;56.748;13.882;2024-03-29T02:14:03;5.50;99.90
11385;DHT22;5747;56.748;13.882;2024-03-29T02:16:32;5.50;99.90
11385;DHT22;5747;56.748;13.882;2024-03-29T02:19:00;5.60;99.90
11385;DHT22;5747;56.748;13.882;2024-03-29T02:21:28;5.60;99.90
11385;DHT22;5747;56.748;13.882;2024-03-29T02:24:00;5.60;99.90
11385;DHT22;5747;56.748;13.882;2024-03-29T02:26:28;5.60;99.90
11385;DHT22;5747;56.748;13.882;2024-03-29T02:28:59;5.60;99.90
11385;DHT22;5747;56.748;13.882;2024-03-29T02:31:26;5.70;99.90
11385;DHT22;5747;56.748;13.882;2024-03-29T02:33:53;5.70;99.90
11385;DHT22;5747;56.748;13.882;2024-03-29T02:36:20;5.80;99.90
11385;DHT22;5747;56.748;13.882;2024-03-29T02:38:47;5.60;99.90
11385;DHT22;5747;56.748;13.882;2024-03-29T02:41:16;5.60;99.90
11385;DHT22;5747;56.748;13.882;2024-03-29T02:43:43;5.50;99.90
11385;DHT22;5747;56.748;13.882;2024-03-29T02:46:10;5.50;99.90
11385;DHT22;5747;56.748;13.882;2024-03-29T02:48:37;5.50;99.90
11385;DHT22;5747;56.748;13.882;2024-03-29T02:51:04;5.50;99.90
11385;DHT22;5747;56.748;13.882;2024-03-29T02:53:31;5.50;99.90
11385;DHT22;5747;56.748;13.882;2024-03-29T02:55:58;5.40;99.90
11385;DHT22;5747;56.748;13.882;2024-03-29T02:58:25;5.50;99.90
11385;DHT22;5747;56.748;13.882;2024-03-29T03:00:53;5.50;99.90
11385;DHT22;5747;56.748;13.882;2024-03-29T03:03:19;5.60;99.90
11385;DHT22;5747;56.748;13.882;2024-03-29T03:05:46;5.60;99.90
11385;DHT22;5747;56.748;13.882;2024-03-29T03:08:12;5.60;99.90
11385;DHT22;5747;56.748;13.882;2024-03-29T03:10:57;5.50;99.90
11385;DHT22;5747;56.748;13.882;2024-03-29T03:13:27;5.30;99.90
11385;DHT22;5747;56.748;13.882;2024-03-29T03:15:55;5.30;99.90
11385;DHT22;5747;56.748;13.882;2024-03-29T03:18:23;5.40;99.90
11385;DHT22;5747;56.748;13.882;2024-03-29T03:20:51;5.30;99.90
11385;DHT22;5747;56.748;13.882;2024-03-29T03:23:17;5.30;99.90
11385;DHT22;5747;56.748;13.882;2024-03-29T03:25:45;5.20;99.90
11385;DHT22;5747;56.748;13.882;2024-03-29T03:28:11;5.20;99.90
11385;DHT22;5747;56.748;13.882;2024-03-29T03:30:40;5.20;99.90
11385;DHT22;5747;56.748;13.882;2024-03-29T03:33:06;5.10;99.90
11385;DHT22;5747;56.748;13.882;2024-03-29T03:35:33;5.10;99.90
11385;DHT22;5747;56.748;13.882;2024-03-29T03:38:00;5.10;99.90
11385;DHT22;5747;56.748;13.882;2024-03-29T03:40:27;5.00;99.90
11385;DHT22;5747;56.748;13.882;2024-03-29T03:42:53;5.00;99.90
11385;DHT22;5747;56.748;13.882;2024-03-29T03:45:20;5.00;99.90
11385;DHT22;5747;56.748;13.882;2024-03-29T03:47:48;5.00;99.90
11385;DHT22;5747;56.748;13.882;2024-03-29T03:50:15;4.80;99.90
11385;DHT22;5747;56.748;13.882;2024-03-29T03:52:41;4.70;99.90
11385;DHT22;5747;56.748;13.882;2024-03-29T03:55:08;4.50;99.90
11385;DHT22;5747;56.748;13.882;2024-03-29T03:57:34;4.40;99.90
11385;DHT22;5747;56.748;13.882;2024-03-29T04:00:02;4.40;99.90
11385;DHT22;5747;56.748;13.882;2024-03-29T04:02:37;4.30;99.90
11385;DHT22;5747;56.748;13.882;2024-03-29T04:05:07;4.20;99.90
11385;DHT22;5747;56.748;13.882;2024-03-29T04:07:33;4.00;99.90
11385;DHT22;5747;56.748;13.882;2024-03-29T04:10:00;4.00;99.90
11385;DHT22;5747;56.748;13.882;2024-03-29T04:12:26;3.90;99.90
11385;DHT22;5747;56.748;13.882;2024-03-29T04:14:53;3.90;99.90
11385;DHT22;5747;56.748;13.882;2024-03-29T04:17:22;4.00;99.90
11385;DHT22;5747;56.748;13.882;2024-03-29T04:19:49;4.00;99.90
11385;DHT22;5747;56.748;13.882;2024-03-29T04:22:17;4.20;99.90
11385;DHT22;5747;56.748;13.882;2024-03-29T04:24:45;4.30;99.90
11385;DHT22;5747;56.748;13.882;2024-03-29T04:27:11;4.30;99.90
11385;DHT22;5747;56.748;13.882;2024-03-29T04:29:38;4.30;99.90
11385;DHT22;5747;56.748;13.882;2024-03-29T04:32:05;4.20;99.90
11385;DHT22;5747;56.748;13.882;2024-03-29T04:34:33;4.10;99.90
11385;DHT22;5747;56.748;13.882;2024-03-29T04:36:59;4.00;99.90
11385;DHT22;5747;56.748;13.882;2024-03-29T04:39:27;4.00;99.90
11385;DHT22;5747;56.748;13.882;2024-03-29T04:41:54;3.90;99.90
11385;DHT22;5747;56.748;13.882;2024-03-29T04:44:25;3.70;99.90
11385;DHT22;5747;56.748;13.882;2024-03-29T04:46:53;3.50;99.90
11385;DHT22;5747;56.748;13.882;2024-03-29T04:49:22;3.40;99.90
11385;DHT22;5747;56.748;13.882;2024-03-29T04:51:56;3.30;99.90
11385;DHT22;5747;56.748;13.882;2024-03-29T04:54:23;3.30;99.90
11385;DHT22;5747;56.748;13.882;2024-03-29T04:56:52;3.30;99.90
11385;DHT22;5747;56.748;13.882;2024-03-29T04:59:19;3.30;99.90
11385;DHT22;5747;56.748;13.882;2024-03-29T05:01:47;3.30;99.90
11385;DHT22;5747;56.748;13.882;2024-03-29T05:04:16;3.50;99.90
11385;DHT22;5747;56.748;13.882;2024-03-29T05:06:51;3.60;99.90
11385;DHT22;5747;56.748;13.882;2024-03-29T05:09:19;3.60;99.90
11385;DHT22;5747;56.748;13.882;2024-03-29T05:11:46;3.70;99.90
11385;DHT22;5747;56.748;13.882;2024-03-29T05:14:15;3.70;99.90
11385;DHT22;5747;56.748;13.882;2024-03-29T05:16:44;3.90;99.90
11385;DHT22;5747;56.748;13.882;2024-03-29T05:19:12;4.00;99.90
11385;DHT22;5747;56.748;13.882;2024-03-29T05:21:39;4.00;99.90
11385;DHT22;5747;56.748;13.882;2024-03-29T05:24:07;4.10;99.90
11385;DHT22;5747;56.748;13.882;2024-03-29T05:26:35;4.10;99.90
11385;DHT22;5747;56.748;13.882;2024-03-29T05:29:02;4.10;99.90
11385;DHT22;5747;56.748;13.882;2024-03-29T05:31:31;4.10;99.90
11385;DHT22;5747;56.748;13.882;2024-03-29T05:33:58;4.10;99.90
11385;DHT22;5747;56.748;13.882;2024-03-29T05:36:26;3.90;99.90
11385;DHT22;5747;56.748;13.882;2024-03-29T05:38:53;4.00;99.90
11385;DHT22;5747;56.748;13.882;2024-03-29T05:41:21;4.00;99.90
11385;DHT22;5747;56.748;13.882;2024-03-29T05:43:48;4.20;99.90
11385;DHT22;5747;56.748;13.882;2024-03-29T05:46:15;4.30;99.90
11385;DHT22;5747;56.748;13.882;2024-03-29T05:48:45;4.30;99.90
11385;DHT22;5747;56.748;13.882;2024-03-29T05:51:12;4.40;99.90
11385;DHT22;5747;56.748;13.882;2024-03-29T05:53:39;4.50;99.90
11385;DHT22;5747;56.748;13.882;2024-03-29T05:56:07;4.60;99.90
11385;DHT22;5747;56.748;13.882;2024-03-29T05:58:34;4.70;99.90
11385;DHT22;5747;56.748;13.882;2024-03-29T06:01:02;4.80;99.90
11385;DHT22;5747;56.748;13.882;2024-03-29T06:03:29;4.90;99.90
11385;DHT22;5747;56.748;13.882;2024-03-29T06:05:57;5.00;99.90
11385;DHT22;5747;56.748;13.882;2024-03-29T06:08:24;5.00;99.90
11385;DHT22;5747;56.748;13.882;2024-03-29T06:10:53;5.20;99.90
11385;DHT22;5747;56.748;13.882;2024-03-29T06:13:20;5.20;99.90
11385;DHT22;5747;56.748;13.882;2024-03-29T06:16:16;5.20;99.90
11385;DHT22;5747;56.748;13.882;2024-03-29T06:19:01;5.20;99.90
11385;DHT22;5747;56.748;13.882;2024-03-29T06:21:30;5.50;99.90
11385;DHT22;5747;56.748;13.882;2024-03-29T06:24:04;5.60;99.90
11385;DHT22;5747;56.748;13.882;2024-03-29T06:26:32;5.80;99.90
11385;DHT22;5747;56.748;13.882;2024-03-29T06:28:59;5.80;99.90
11385;DHT22;5747;56.748;13.882;2024-03-29T06:31:27;5.70;99.90
11385;DHT22;5747;56.748;13.882;2024-03-29T06:33:55;5.80;99.90
11385;DHT22;5747;56.748;13.882;2024-03-29T06:36:22;5.80;99.90
11385;DHT22;5747;56.748;13.882;2024-03-29T06:38:50;5.80;99.90
11385;DHT22;5747;56.748;13.882;2024-03-29T06:41:17;5.80;99.90
11385;DHT22;5747;56.748;13.882;2024-03-29T06:43:45;5.80;99.90
11385;DHT22;5747;56.748;13.882;2024-03-29T06:46:13;5.80;99.90
11385;DHT22;5747;56.748;13.882;2024-03-29T06:48:41;5.90;99.90
11385;DHT22;5747;56.748;13.882;2024-03-29T06:51:08;5.90;99.90
11385;DHT22;5747;56.748;13.882;2024-03-29T06:53:35;6.00;99.90
11385;DHT22;5747;56.748;13.882;2024-03-29T06:56:05;6.10;99.90
11385;DHT22;5747;56.748;13.882;2024-03-29T06:58:32;6.40;99.90
11385;DHT22;5747;56.748;13.882;2024-03-29T07:01:00;6.50;99.90
11385;DHT22;5747;56.748;13.882;2024-03-29T07:03:27;6.60;99.90
11385;DHT22;5747;56.748;13.882;2024-03-29T07:05:54;6.60;99.90
11385;DHT22;5747;56.748;13.882;2024-03-29T07:08:21;6.50;99.90
11385;DHT22;5747;56.748;13.882;2024-03-29T07:10:57;6.50;99.90
11385;DHT22;5747;56.748;13.882;2024-03-29T07:13:28;6.50;99.90
11385;DHT22;5747;56.748;13.882;2024-03-29T07:15:55;6.50;99.90
11385;DHT22;5747;56.748;13.882;2024-03-29T07:18:22;6.40;99.90
11385;DHT22;5747;56.748;13.882;2024-03-29T07:20:49;6.60;99.90
11385;DHT22;5747;56.748;13.882;2024-03-29T07:23:17;6.70;99.90
11385;DHT22;5747;56.748;13.882;2024-03-29T07:25:44;6.80;99.90
11385;DHT22;5747;56.748;13.882;2024-03-29T07:28:12;6.80;99.90
11385;DHT22;5747;56.748;13.882;2024-03-29T07:30:42;6.90;99.90
11385;DHT22;5747;56.748;13.882;2024-03-29T07:33:10;7.20;99.90
11385;DHT22;5747;56.748;13.882;2024-03-29T07:35:41;7.30;99.90
11385;DHT22;5747;56.748;13.882;2024-03-29T07:38:09;7.50;99.90
11385;DHT22;5747;56.748;13.882;2024-03-29T07:40:37;7.50;99.90
11385;DHT22;5747;56.748;13.882;2024-03-29T07:43:04;7.40;99.90
11385;DHT22;5747;56.748;13.882;2024-03-29T07:45:31;7.50;99.90
11385;DHT22;5747;56.748;13.882;2024-03-29T07:47:59;7.70;99.90
11385;DHT22;5747;56.748;13.882;2024-03-29T07:50:27;7.70;99.90
11385;DHT22;5747;56.748;13.882;2024-03-29T07:52:54;7.60;99.90
11385;DHT22;5747;56.748;13.882;2024-03-29T07:55:21;7.60;99.90
11385;DHT22;5747;56.748;13.882;2024-03-29T07:57:48;7.60;99.90
11385;DHT22;5747;56.748;13.882;2024-03-29T08:00:17;7.70;99.90
11385;DHT22;5747;56.748;13.882;2024-03-29T08:02:44;7.70;99.90
11385;DHT22;5747;56.748;13.882;2024-03-29T08:05:13;7.90;99.90
11385;DHT22;5747;56.748;13.882;2024-03-29T08:07:40;7.90;99.90
11385;DHT22;5747;56.748;13.882;2024-03-29T08:10:08;8.00;99.90
11385;DHT22;5747;56.748;13.882;2024-03-29T08:12:35;8.10;99.90
11385;DHT22;5747;56.748;13.882;2024-03-29T08:15:03;8.00;99.90
11385;DHT22;5747;56.748;13.882;2024-03-29T08:17:30;8.10;99.90
11385;DHT22;5747;56.748;13.882;2024-03-29T08:19:57;8.20;99.90
11385;DHT22;5747;56.748;13.882;2024-03-29T08:22:26;8.10;99.90
11385;DHT22;5747;56.748;13.882;2024-03-29T08:24:54;8.20;99.90
11385;DHT22;5747;56.748;13.882;2024-03-29T08:27:21;8.50;99.90
11385;DHT22;5747;56.748;13.882;2024-03-29T08:29:48;8.60;99.90
11385;DHT22;5747;56.748;13.882;2024-03-29T08:32:16;8.60;99.90
11385;DHT22;5747;56.748;13.882;2024-03-29T08:34:43;8.70;99.90
11385;DHT22;5747;56.748;13.882;2024-03-29T08:37:10;8.60;99.90
11385;DHT22;5747;56.748;13.882;2024-03-29T08:39:39;8.70;99.90
11385;DHT22;5747;56.748;13.882;2024-03-29T08:42:07;9.00;99.90
11385;DHT22;5747;56.748;13.882;2024-03-29T08:44:37;9.10;99.90
11385;DHT22;5747;56.748;13.882;2024-03-29T08:47:05;9.00;99.90
11385;DHT22;5747;56.748;13.882;2024-03-29T08:49:33;8.90;99.90
11385;DHT22;5747;56.748;13.882;2024-03-29T08:52:00;9.20;99.90
11385;DHT22;5747;56.748;13.882;2024-03-29T08:54:30;9.30;99.90
11385;DHT22;5747;56.748;13.882;2024-03-29T08:56:59;9.30;99.90
11385;DHT22;5747;56.748;13.882;2024-03-29T08:59:27;9.10;99.90
11385;DHT22;5747;56.748;13.882;2024-03-29T09:02:04;9.00;99.90
11385;DHT22;5747;56.748;13.882;2024-03-29T09:04:31;9.00;99.90
11385;DHT22;5747;56.748;13.882;2024-03-29T09:07:00;8.90;99.90
11385;DHT22;5747;56.748;13.882;2024-03-29T09:09:28;8.80;99.90
11385;DHT22;5747;56.748;13.882;2024-03-29T09:11:56;8.90;99.90
11385;DHT22;5747;56.748;13.882;2024-03-29T09:14:24;9.20;99.90
11385;DHT22;5747;56.748;13.882;2024-03-29T09:16:51;9.50;99.90
11385;DHT22;5747;56.748;13.882;2024-03-29T09:19:19;9.80;99.90
11385;DHT22;5747;56.748;13.882;2024-03-29T09:21:46;10.00;99.90
11385;DHT22;5747;56.748;13.882;2024-03-29T09:24:13;10.10;99.90
11385;DHT22;5747;56.748;13.882;2024-03-29T09:26:40;10.10;99.90
11385;DHT22;5747;56.748;13.882;2024-03-29T09:29:07;10.00;99.90
11385;DHT22;5747;56.748;13.882;2024-03-29T09:31:36;10.10;99.90
11385;DHT22;5747;56.748;13.882;2024-03-29T09:34:03;10.10;99.90
11385;DHT22;5747;56.748;13.882;2024-03-29T09:36:30;10.20;99.90
11385;DHT22;5747;56.748;13.882;2024-03-29T09:38:57;10.20;99.90
11385;DHT22;5747;56.748;13.882;2024-03-29T09:41:25;10.10;99.90
11385;DHT22;5747;56.748;13.882;2024-03-29T09:43:57;10.10;99.90
11385;DHT22;5747;56.748;13.882;2024-03-29T09:46:27;10.10;99.90
11385;DHT22;5747;56.748;13.882;2024-03-29T09:48:57;10.20;99.90
11385;DHT22;5747;56.748;13.882;2024-03-29T09:51:25;10.10;99.90
11385;DHT22;5747;56.748;13.882;2024-03-29T09:53:53;10.30;99.90
11385;DHT22;5747;56.748;13.882;2024-03-29T09:56:25;10.30;99.90
11385;DHT22;5747;56.748;13.882;2024-03-29T09:58:52;10.50;99.90
11385;DHT22;5747;56.748;13.882;2024-03-29T10:01:20;10.50;99.90
11385;DHT22;5747;56.748;13.882;2024-03-29T10:03:49;10.40;99.90
11385;DHT22;5747;56.748;13.882;2024-03-29T10:06:18;10.50;99.90
11385;DHT22;5747;56.748;13.882;2024-03-29T10:08:45;10.60;99.90
11385;DHT22;5747;56.748;13.882;2024-03-29T10:11:13;10.60;99.90
11385;DHT22;5747;56.748;13.882;2024-03-29T10:13:42;10.50;99.90
11385;DHT22;5747;56.748;13.882;2024-03-29T10:16:10;10.60;99.90
11385;DHT22;5747;56.748;13.882;2024-03-29T10:18:41;10.70;99.90
11385;DHT22;5747;56.748;13.882;2024-03-29T10:21:09;10.80;99.90
11385;DHT22;5747;56.748;13.882;2024-03-29T10:23:39;10.90;99.90
11385;DHT22;5747;56.748;13.882;2024-03-29T10:26:08;11.00;99.90
11385;DHT22;5747;56.748;13.882;2024-03-29T10:28:36;11.10;99.90
11385;DHT22;5747;56.748;13.882;2024-03-29T10:31:04;11.10;99.90
11385;DHT22;5747;56.748;13.882;2024-03-29T10:33:31;11.10;99.90
11385;DHT22;5747;56.748;13.882;2024-03-29T10:36:00;11.20;99.90
11385;DHT22;5747;56.748;13.882;2024-03-29T10:38:30;11.20;99.90
11385;DHT22;5747;56.748;13.882;2024-03-29T10:40:59;11.20;99.90
11385;DHT22;5747;56.748;13.882;2024-03-29T10:43:29;11.10;99.90
11385;DHT22;5747;56.748;13.882;2024-03-29T10:45:56;11.40;99.90
11385;DHT22;5747;56.748;13.882;2024-03-29T10:48:26;11.60;99.90
11385;DHT22;5747;56.748;13.882;2024-03-29T10:50:54;11.80;99.90
11385;DHT22;5747;56.748;13.882;2024-03-29T10:53:23;12.10;99.90
11385;DHT22;5747;56.748;13.882;2024-03-29T10:55:53;12.50;99.90
11385;DHT22;5747;56.748;13.882;2024-03-29T10:58:22;12.80;99.90
11385;DHT22;5747;56.748;13.882;2024-03-29T11:00:56;12.80;99.90
11385;DHT22;5747;56.748;13.882;2024-03-29T11:03:30;12.50;99.90
11385;DHT22;5747;56.748;13.882;2024-03-29T11:06:03;12.80;99.90
11385;DHT22;5747;56.748;13.882;2024-03-29T11:08:33;12.70;99.90
11385;DHT22;5747;56.748;13.882;2024-03-29T11:11:05;12.90;99.90
11385;DHT22;5747;56.748;13.882;2024-03-29T11:13:37;13.10;99.90
11385;DHT22;5747;56.748;13.882;2024-03-29T11:16:08;13.20;99.90
11385;DHT22;5747;56.748;13.882;2024-03-29T11:18:35;13.00;99.90
11385;DHT22;5747;56.748;13.882;2024-03-29T11:21:04;12.70;99.90
11385;DHT22;5747;56.748;13.882;2024-03-29T11:23:35;12.70;99.90
11385;DHT22;5747;56.748;13.882;2024-03-29T11:26:03;12.50;99.90
11385;DHT22;5747;56.748;13.882;2024-03-29T11:28:34;12.50;99.90
11385;DHT22;5747;56.748;13.882;2024-03-29T11:31:02;12.30;99.90
11385;DHT22;5747;56.748;13.882;2024-03-29T11:33:31;12.30;99.90
11385;DHT22;5747;56.748;13.882;2024-03-29T11:36:00;12.20;99.90
11385;DHT22;5747;56.748;13.882;2024-03-29T11:38:32;12.20;99.90
11385;DHT22;5747;56.748;13.882;2024-03-29T11:41:04;12.40;99.90
11385;DHT22;5747;56.748;13.882;2024-03-29T11:43:34;12.50;99.90
11385;DHT22;5747;56.748;13.882;2024-03-29T11:46:04;12.40;99.90
11385;DHT22;5747;56.748;13.882;2024-03-29T11:48:31;12.10;99.90
11385;DHT22;5747;56.748;13.882;2024-03-29T11:51:00;12.10;99.90
11385;DHT22;5747;56.748;13.882;2024-03-29T11:53:27;11.90;99.90
11385;DHT22;5747;56.748;13.882;2024-03-29T11:55:55;11.60;99.90
11385;DHT22;5747;56.748;13.882;2024-03-29T11:58:23;11.70;99.90
11385;DHT22;5747;56.748;13.882;2024-03-29T12:00:53;11.80;99.90
11385;DHT22;5747;56.748;13.882;2024-03-29T12:03:21;11.90;99.90
11385;DHT22;5747;56.748;13.882;2024-03-29T12:05:50;11.90;99.90
11385;DHT22;5747;56.748;13.882;2024-03-29T12:08:17;12.10;99.90
11385;DHT22;5747;56.748;13.882;2024-03-29T12:10:45;12.30;99.90
11385;DHT22;5747;56.748;13.882;2024-03-29T12:13:16;12.40;99.90
11385;DHT22;5747;56.748;13.882;2024-03-29T12:15:44;12.50;99.90
11385;DHT22;5747;56.748;13.882;2024-03-29T12:18:12;12.50;99.90
11385;DHT22;5747;56.748;13.882;2024-03-29T12:20:42;12.50;99.90
11385;DHT22;5747;56.748;13.882;2024-03-29T12:23:12;12.40;99.90
11385;DHT22;5747;56.748;13.882;2024-03-29T12:25:40;12.40;99.90
11385;DHT22;5747;56.748;13.882;2024-03-29T12:28:10;12.50;99.90
11385;DHT22;5747;56.748;13.882;2024-03-29T12:30:38;12.30;99.90
11385;DHT22;5747;56.748;13.882;2024-03-29T12:33:08;12.30;99.90
11385;DHT22;5747;56.748;13.882;2024-03-29T12:35:38;12.30;99.90
11385;DHT22;5747;56.748;13.882;2024-03-29T12:38:05;12.50;99.90
11385;DHT22;5747;56.748;13.882;2024-03-29T12:40:33;12.60;99.90
11385;DHT22;5747;56.748;13.882;2024-03-29T12:43:04;12.50;99.90
11385;DHT22;5747;56.748;13.882;2024-03-29T12:45:32;12.50;99.90
11385;DHT22;5747;56.748;13.882;2024-03-29T12:47:59;12.50;99.90
11385;DHT22;5747;56.748;13.882;2024-03-29T12:50:28;12.70;99.90
11385;DHT22;5747;56.748;13.882;2024-03-29T12:52:59;12.80;99.90
11385;DHT22;5747;56.748;13.882;2024-03-29T12:55:28;12.90;99.90
11385;DHT22;5747;56.748;13.882;2024-03-29T12:57:57;12.70;99.90
11385;DHT22;5747;56.748;13.882;2024-03-29T13:00:26;12.60;99.90
11385;DHT22;5747;56.748;13.882;2024-03-29T13:02:53;12.40;99.90
11385;DHT22;5747;56.748;13.882;2024-03-29T13:05:20;12.20;99.90
11385;DHT22;5747;56.748;13.882;2024-03-29T13:07:48;12.20;99.90
11385;DHT22;5747;56.748;13.882;2024-03-29T13:10:16;12.10;99.90
11385;DHT22;5747;56.748;13.882;2024-03-29T13:12:47;12.10;99.90
11385;DHT22;5747;56.748;13.882;2024-03-29T13:15:18;12.10;99.90
11385;DHT22;5747;56.748;13.882;2024-03-29T13:17:47;12.20;99.90
11385;DHT22;5747;56.748;13.882;2024-03-29T13:20:15;12.10;99.90
11385;DHT22;5747;56.748;13.882;2024-03-29T13:22:43;12.00;99.90
11385;DHT22;5747;56.748;13.882;2024-03-29T13:25:12;12.00;99.90
11385;DHT22;5747;56.748;13.882;2024-03-29T13:27:42;12.00;99.90
11385;DHT22;5747;56.748;13.882;2024-03-29T13:30:10;11.90;99.90
11385;DHT22;5747;56.748;13.882;2024-03-29T13:32:39;11.90;99.90
11385;DHT22;5747;56.748;13.882;2024-03-29T13:35:07;11.80;99.90
11385;DHT22;5747;56.748;13.882;2024-03-29T13:37:37;11.80;99.90
11385;DHT22;5747;56.748;13.882;2024-03-29T13:40:05;11.70;99.90
11385;DHT22;5747;56.748;13.882;2024-03-29T13:42:34;11.70;99.90
11385;DHT22;5747;56.748;13.882;2024-03-29T13:45:04;11.70;99.90
11385;DHT22;5747;56.748;13.882;2024-03-29T13:47:32;11.60;99.90
11385;DHT22;5747;56.748;13.882;2024-03-29T13:50:00;11.60;99.90
11385;DHT22;5747;56.748;13.882;2024-03-29T13:52:27;11.50;99.90
11385;DHT22;5747;56.748;13.882;2024-03-29T13:54:54;11.60;99.90
11385;DHT22;5747;56.748;13.882;2024-03-29T13:57:21;11.60;99.90
11385;DHT22;5747;56.748;13.882;2024-03-29T13:59:48;11.60;99.90
11385;DHT22;5747;56.748;13.882;2024-03-29T14:02:18;11.60;99.90
11385;DHT22;5747;56.748;13.882;2024-03-29T14:04:46;11.50;99.90
11385;DHT22;5747;56.748;13.882;2024-03-29T14:07:15;11.30;99.90
11385;DHT22;5747;56.748;13.882;2024-03-29T14:09:44;11.00;99.90
11385;DHT22;5747;56.748;13.882;2024-03-29T14:12:11;10.90;99.90
11385;DHT22;5747;56.748;13.882;2024-03-29T14:14:39;10.70;99.90
11385;DHT22;5747;56.748;13.882;2024-03-29T14:17:07;10.40;99.90
11385;DHT22;5747;56.748;13.882;2024-03-29T14:19:36;10.10;99.90
11385;DHT22;5747;56.748;13.882;2024-03-29T14:22:04;9.70;99.90
11385;DHT22;5747;56.748;13.882;2024-03-29T14:24:32;9.60;99.90
11385;DHT22;5747;56.748;13.882;2024-03-29T14:27:02;9.40;99.90
11385;DHT22;5747;56.748;13.882;2024-03-29T14:29:31;9.00;99.90
11385;DHT22;5747;56.748;13.882;2024-03-29T14:31:58;8.90;99.90
11385;DHT22;5747;56.748;13.882;2024-03-29T14:34:25;8.70;99.90
11385;DHT22;5747;56.748;13.882;2024-03-29T14:36:54;8.70;99.90
11385;DHT22;5747;56.748;13.882;2024-03-29T14:39:21;8.50;99.90
11385;DHT22;5747;56.748;13.882;2024-03-29T14:41:48;8.60;99.90
11385;DHT22;5747;56.748;13.882;2024-03-29T14:44:17;8.50;99.90
11385;DHT22;5747;56.748;13.882;2024-03-29T14:46:46;8.50;99.90
11385;DHT22;5747;56.748;13.882;2024-03-29T14:49:14;8.50;99.90
11385;DHT22;5747;56.748;13.882;2024-03-29T14:51:43;8.20;99.90
11385;DHT22;5747;56.748;13.882;2024-03-29T14:54:12;8.20;99.90
11385;DHT22;5747;56.748;13.882;2024-03-29T14:56:39;8.10;99.90
11385;DHT22;5747;56.748;13.882;2024-03-29T14:59:07;8.20;99.90
11385;DHT22;5747;56.748;13.882;2024-03-29T15:01:35;8.40;99.90
11385;DHT22;5747;56.748;13.882;2024-03-29T15:04:03;8.30;99.90
11385;DHT22;5747;56.748;13.882;2024-03-29T15:06:30;8.10;99.90
11385;DHT22;5747;56.748;13.882;2024-03-29T15:08:59;8.10;99.90
11385;DHT22;5747;56.748;13.882;2024-03-29T15:11:28;8.10;99.90
11385;DHT22;5747;56.748;13.882;2024-03-29T15:13:55;8.20;99.90
11385;DHT22;5747;56.748;13.882;2024-03-29T15:16:22;8.20;99.90
11385;DHT22;5747;56.748;13.882;2024-03-29T15:18:53;8.20;99.90
11385;DHT22;5747;56.748;13.882;2024-03-29T15:21:22;8.20;99.90
11385;DHT22;5747;56.748;13.882;2024-03-29T15:23:50;8.20;99.90
11385;DHT22;5747;56.748;13.882;2024-03-29T15:26:17;8.20;99.90
11385;DHT22;5747;56.748;13.882;2024-03-29T15:28:47;8.20;99.90
11385;DHT22;5747;56.748;13.882;2024-03-29T15:31:33;8.20;99.90
11385;DHT22;5747;56.748;13.882;2024-03-29T15:34:01;8.20;99.90
11385;DHT22;5747;56.748;13.882;2024-03-29T15:36:29;8.30;99.90
11385;DHT22;5747;56.748;13.882;2024-03-29T15:38:57;8.40;99.90
11385;DHT22;5747;56.748;13.882;2024-03-29T15:41:32;8.40;99.90
11385;DHT22;5747;56.748;13.882;2024-03-29T15:44:01;8.20;99.90
11385;DHT22;5747;56.748;13.882;2024-03-29T15:46:29;8.10;99.90
11385;DHT22;5747;56.748;13.882;2024-03-29T15:48:57;8.10;99.90